createdAt,value
2023-07-11T00:01:15.154Z,101222.75
2023-07-11T00:03:42.610Z,101218.16
2023-07-11T00:06:16.065Z,101219.84
2023-07-11T00:08:43.404Z,101217.13
2023-07-11T00:11:12.445Z,101217.97
2023-07-11T00:13:41.099Z,101217.78
2023-07-11T00:16:12.340Z,101221.38
2023-07-11T00:18:40.639Z,101214.91
2023-07-11T00:21:08.261Z,101217.63
2023-07-11T00:23:35.811Z,101217.44
2023-07-11T00:26:04.149Z,101212.84
2023-07-11T00:28:32.019Z,101207.41
2023-07-11T00:31:00.069Z,101211.84
2023-07-11T00:33:27.456Z,101207.25
2023-07-11T00:35:55.257Z,101208.09
2023-07-11T00:38:23.058Z,101210.63
2023-07-11T00:40:52.423Z,101207.91
2023-07-11T00:43:21.843Z,101212.34
2023-07-11T00:46:04.557Z,101217.78
2023-07-11T00:48:38.858Z,101222.19
2023-07-11T00:51:09.798Z,101214.88
2023-07-11T00:53:40.165Z,101216.56
2023-07-11T00:56:13.409Z,101216.56
2023-07-11T00:58:43.381Z,101222.00
2023-07-11T01:01:11.812Z,101218.25
2023-07-11T01:03:39.540Z,101222.69
2023-07-11T01:06:14.742Z,101213.69
2023-07-11T01:08:45.089Z,101214.53
2023-07-11T01:11:12.653Z,101212.66
2023-07-11T01:13:39.999Z,101206.19
2023-07-11T01:16:07.922Z,101206.19
2023-07-11T01:18:36.289Z,101205.13
2023-07-11T01:21:05.623Z,101207.00
2023-07-11T01:23:34.581Z,101215.88
2023-07-11T01:26:08.241Z,101214.00
2023-07-11T01:28:35.876Z,101211.25
2023-07-11T01:31:05.447Z,101211.25
2023-07-11T01:33:33.921Z,101208.34
2023-07-11T01:36:02.688Z,101201.03
2023-07-11T01:38:30.604Z,101204.59
2023-07-11T01:40:57.970Z,101201.88
2023-07-11T01:43:25.322Z,101204.59
2023-07-11T01:45:52.700Z,101188.28
2023-07-11T01:48:20.314Z,101187.44
2023-07-11T01:50:49.647Z,101194.59
2023-07-11T01:53:17.280Z,101188.13
2023-07-11T01:55:54.642Z,101190.84
2023-07-11T01:58:22.105Z,101193.38
2023-07-11T02:00:49.513Z,101186.25
2023-07-11T02:03:16.922Z,101186.91
2023-07-11T02:05:44.284Z,101186.91
2023-07-11T02:08:11.584Z,101182.50
2023-07-11T02:10:41.666Z,101183.34
2023-07-11T02:13:09.407Z,101177.91
2023-07-11T02:15:41.617Z,101176.91
2023-07-11T02:18:09.384Z,101170.44
2023-07-11T02:20:45.149Z,101177.75
2023-07-11T02:23:14.408Z,101163.09
2023-07-11T02:25:42.697Z,101174.00
2023-07-11T02:28:10.033Z,101172.13
2023-07-11T02:30:37.501Z,101178.41
2023-07-11T02:33:05.105Z,101179.25
2023-07-11T02:35:32.436Z,101177.56
2023-07-11T02:38:01.692Z,101174.63
2023-07-11T02:40:29.154Z,101181.81
2023-07-11T02:42:56.608Z,101180.97
2023-07-11T02:45:24.523Z,101175.31
2023-07-11T02:47:51.989Z,101178.03
2023-07-11T02:50:19.390Z,101181.59
2023-07-11T02:52:48.516Z,101186.22
2023-07-11T02:55:15.844Z,101185.16
2023-07-11T02:57:44.476Z,101180.56
2023-07-11T03:00:12.623Z,101186.00
2023-07-11T03:02:40.054Z,101179.72
2023-07-11T03:05:09.468Z,101178.88
2023-07-11T03:07:37.201Z,101182.63
2023-07-11T03:10:04.861Z,101199.81
2023-07-11T03:12:32.215Z,101193.53
2023-07-11T03:15:00.672Z,101194.56
2023-07-11T03:17:30.225Z,101199.13
2023-07-11T03:19:57.608Z,101200.84
2023-07-11T03:22:25.031Z,101200.84
2023-07-11T03:24:52.337Z,101188.94
2023-07-11T03:27:19.756Z,101195.41
2023-07-11T03:29:47.103Z,101196.41
2023-07-11T03:32:15.269Z,101192.00
2023-07-11T03:34:53.096Z,101193.69
2023-07-11T03:37:22.069Z,101195.56
2023-07-11T03:39:49.438Z,101196.41
2023-07-11T03:42:16.826Z,101192.69
2023-07-11T03:44:44.210Z,101197.28
2023-07-11T03:47:11.747Z,101197.28
2023-07-11T03:49:39.054Z,101196.41
2023-07-11T03:52:06.627Z,101200.84
2023-07-11T03:54:33.982Z,101193.69
2023-07-11T03:57:01.607Z,101194.56
2023-07-11T03:59:29.105Z,101194.38
2023-07-11T04:01:56.473Z,101188.94
2023-07-11T04:04:23.799Z,101196.06
2023-07-11T04:06:51.140Z,101192.28
2023-07-11T04:09:18.485Z,101200.47
2023-07-11T04:11:45.774Z,101194.88
2023-07-11T04:14:13.095Z,101200.31
2023-07-11T04:16:40.479Z,101195.69
2023-07-11T04:19:07.841Z,101192.13
2023-07-11T04:21:36.484Z,101192.97
2023-07-11T04:24:04.060Z,101191.28
2023-07-11T04:26:31.339Z,101192.13
2023-07-11T04:28:58.650Z,101186.00
2023-07-11T04:31:27.790Z,101202.19
2023-07-11T04:33:55.098Z,101204.91
2023-07-11T04:36:22.563Z,101192.28
2023-07-11T04:38:51.093Z,101193.16
2023-07-11T04:41:20.239Z,101204.06
2023-07-11T04:43:47.528Z,101201.34
2023-07-11T04:46:15.029Z,101209.31
2023-07-11T04:48:42.492Z,101210.19
2023-07-11T04:51:12.236Z,101207.47
2023-07-11T04:53:40.448Z,101216.47
2023-07-11T04:56:09.994Z,101215.44
2023-07-11T04:58:37.832Z,101217.31
2023-07-11T05:01:11.998Z,101225.47
2023-07-11T05:03:39.975Z,101228.19
2023-07-11T05:06:09.001Z,101229.03
2023-07-11T05:08:36.640Z,101226.31
2023-07-11T05:11:08.460Z,101228.03
2023-07-11T05:13:36.400Z,101227.19
2023-07-11T05:16:07.191Z,101224.28
2023-07-11T05:18:44.011Z,101222.59
2023-07-11T05:21:14.453Z,101225.13
2023-07-11T05:23:41.885Z,101220.53
2023-07-11T05:26:09.766Z,101222.22
2023-07-11T05:28:37.483Z,101223.09
2023-07-11T05:31:07.238Z,101221.38
2023-07-11T05:33:35.071Z,101222.06
2023-07-11T05:36:29.162Z,101208.44
2023-07-11T05:38:56.616Z,101210.13
2023-07-11T05:41:24.161Z,101214.72
2023-07-11T05:43:51.496Z,101211.81
2023-07-11T05:46:18.857Z,101206.38
2023-07-11T05:48:46.247Z,101212.66
2023-07-11T05:51:16.450Z,101217.25
2023-07-11T05:53:44.723Z,101218.09
2023-07-11T05:56:12.192Z,101212.66
2023-07-11T05:58:40.730Z,101209.78
2023-07-11T06:01:11.641Z,101213.34
2023-07-11T06:03:42.116Z,101215.03
2023-07-11T06:06:12.582Z,101219.44
2023-07-11T06:08:40.011Z,101211.28
2023-07-11T06:11:07.793Z,101210.28
2023-07-11T06:13:38.305Z,101217.41
2023-07-11T06:16:13.834Z,101215.34
2023-07-11T06:18:41.306Z,101223.34
2023-07-11T06:21:10.351Z,101226.06
2023-07-11T06:23:38.078Z,101229.44
2023-07-11T06:26:06.653Z,101211.22
2023-07-11T06:28:36.210Z,101225.72
2023-07-11T06:31:07.807Z,101223.63
2023-07-11T06:33:36.195Z,101232.66
2023-07-11T06:36:05.569Z,101223.44
2023-07-11T06:38:33.088Z,101229.75
2023-07-11T06:41:01.003Z,101225.16
2023-07-11T06:43:29.797Z,101221.41
2023-07-11T06:45:58.900Z,101222.25
2023-07-11T06:48:29.404Z,101227.50
2023-07-11T06:51:00.258Z,101225.66
2023-07-11T06:53:30.443Z,101230.22
2023-07-11T06:55:58.283Z,101218.34
2023-07-11T06:58:25.856Z,101226.50
2023-07-11T07:01:01.295Z,101218.34
2023-07-11T07:03:29.532Z,101222.06
2023-07-11T07:05:59.409Z,101224.63
2023-07-11T07:08:27.831Z,101222.75
2023-07-11T07:10:55.463Z,101229.03
2023-07-11T07:13:24.463Z,101219.81
2023-07-11T07:16:00.103Z,101219.81
2023-07-11T07:18:32.150Z,101225.13
2023-07-11T07:20:59.676Z,101219.66
2023-07-11T07:23:28.163Z,101212.34
2023-07-11T07:26:00.327Z,101216.75
2023-07-11T07:28:29.740Z,101216.59
2023-07-11T07:30:58.727Z,101221.84
2023-07-11T07:33:27.522Z,101207.38
2023-07-11T07:36:02.638Z,101217.94
2023-07-11T07:38:30.290Z,101215.00
2023-07-11T07:41:01.691Z,101217.53
2023-07-11T07:43:30.707Z,101218.38
2023-07-11T07:45:59.673Z,101207.34
2023-07-11T07:48:27.422Z,101225.34
2023-07-11T07:51:04.012Z,101208.38
2023-07-11T07:53:31.739Z,101216.34
2023-07-11T07:56:14.215Z,101210.22
2023-07-11T07:58:44.620Z,101212.09
2023-07-11T08:01:14.219Z,101205.81
2023-07-11T08:03:42.287Z,101217.53
2023-07-11T08:06:16.112Z,101208.38
2023-07-11T08:08:46.681Z,101208.38
2023-07-11T08:11:16.008Z,101206.28
2023-07-11T08:16:28.557Z,101209.00
2023-07-11T08:18:57.773Z,101201.88
2023-07-11T08:21:25.365Z,101205.25
2023-07-11T08:23:52.769Z,101210.69
2023-07-11T08:26:21.383Z,101210.69
2023-07-11T08:28:53.584Z,101213.44
2023-07-11T08:31:22.300Z,101203.38
2023-07-11T08:33:50.190Z,101204.25
2023-07-11T08:36:17.671Z,101209.69
2023-07-11T08:38:46.862Z,101200.50
2023-07-11T08:41:49.380Z,101206.78
2023-07-11T08:44:23.246Z,101209.31
2023-07-11T08:46:59.447Z,101206.59
2023-07-11T08:49:34.350Z,101204.72
2023-07-11T08:52:03.437Z,101213.56
2023-07-11T08:54:38.851Z,101214.41
2023-07-11T08:57:10.729Z,101205.19
2023-07-11T09:00:01.298Z,101211.47
2023-07-11T09:03:13.084Z,101212.16
2023-07-11T09:05:45.096Z,101206.91
2023-07-11T09:08:22.064Z,101203.50
2023-07-11T09:10:58.067Z,101204.72
2023-07-11T09:13:28.038Z,101195.06
2023-07-11T09:16:00.633Z,101195.41
2023-07-11T09:18:44.158Z,101192.03
2023-07-11T09:21:39.012Z,101190.50
2023-07-11T09:24:32.492Z,101180.66
2023-07-11T09:27:23.050Z,101187.09
2023-07-11T09:29:51.453Z,101186.25
2023-07-11T09:32:19.886Z,101185.63
2023-07-11T09:34:50.554Z,101191.91
2023-07-11T09:37:35.889Z,101200.91
2023-07-11T09:40:12.398Z,101188.34
2023-07-11T09:42:48.774Z,101186.47
2023-07-11T09:45:23.979Z,101187.31
2023-07-11T09:48:07.170Z,101193.59
2023-07-11T09:51:14.185Z,101187.31
2023-07-11T09:53:46.527Z,101193.59
2023-07-11T09:56:16.964Z,101192.75
2023-07-11T09:58:52.105Z,101184.38
2023-07-11T10:01:34.044Z,101186.09
2023-07-11T10:04:04.476Z,101179.81
2023-07-11T10:06:47.593Z,101186.94
2023-07-11T10:09:38.939Z,101190.50
2023-07-11T10:12:15.839Z,101188.63
2023-07-11T10:14:46.678Z,101184.03
2023-07-11T10:17:24.073Z,101174.81
2023-07-11T10:20:03.557Z,101178.41
2023-07-11T10:22:37.679Z,101182.00
2023-07-11T10:25:19.810Z,101179.06
2023-07-11T10:27:55.811Z,101180.75
2023-07-11T10:30:30.888Z,101178.03
2023-07-11T10:33:22.207Z,101173.44
2023-07-11T10:36:20.595Z,101163.56
2023-07-11T10:38:56.461Z,101160.69
2023-07-11T10:41:30.369Z,101158.81
2023-07-11T10:44:00.464Z,101151.50
2023-07-11T10:46:43.931Z,101155.06
2023-07-11T10:49:17.240Z,101156.94
2023-07-11T10:51:57.184Z,101152.31
2023-07-11T10:54:39.566Z,101138.53
2023-07-11T10:57:17.138Z,101141.25
2023-07-11T10:59:46.402Z,101130.34
2023-07-11T11:02:20.509Z,101134.78
2023-07-11T11:05:26.166Z,101131.19
2023-07-11T11:08:02.132Z,101141.91
2023-07-11T11:10:52.426Z,101140.03
2023-07-11T11:13:43.794Z,101135.63
2023-07-11T11:19:16.567Z,101126.16
2023-07-11T11:22:16.071Z,101121.31
2023-07-11T11:25:02.578Z,101117.38
2023-07-11T11:28:04.741Z,101117.25
2023-07-11T11:31:00.258Z,101108.69
2023-07-11T11:33:49.157Z,101111.41
2023-07-11T11:36:30.331Z,101106.00
2023-07-11T11:39:20.040Z,101098.88
2023-07-11T11:41:52.285Z,101096.88
2023-07-11T11:47:00.521Z,101095.56
2023-07-11T11:52:01.281Z,101096.94
2023-07-11T11:54:37.303Z,101093.88
2023-07-11T11:57:05.133Z,101094.25
2023-07-11T11:59:32.983Z,101086.75
2023-07-11T12:02:17.474Z,101079.31
2023-07-11T12:05:02.412Z,101081.00
2023-07-11T12:07:33.202Z,101079.84
2023-07-11T12:10:09.925Z,101082.03
2023-07-11T12:12:37.349Z,101081.88
2023-07-11T12:15:13.849Z,101078.63
2023-07-11T12:17:41.362Z,101074.56
2023-07-11T12:20:08.765Z,101071.19
2023-07-11T12:22:39.170Z,101067.47
2023-07-11T12:25:06.500Z,101067.47
2023-07-11T12:27:33.770Z,101072.88
2023-07-11T12:30:26.679Z,101063.91
2023-07-11T12:32:56.133Z,101056.75
2023-07-11T12:35:26.063Z,101055.06
2023-07-11T12:38:02.390Z,101056.94
2023-07-11T12:40:38.981Z,101054.22
2023-07-11T12:43:33.999Z,101042.72
2023-07-11T12:46:07.415Z,101038.97
2023-07-11T12:48:44.914Z,101046.28
2023-07-11T12:51:27.183Z,101047.28
2023-07-11T12:54:01.580Z,101045.75
2023-07-11T12:56:30.486Z,101042.34
2023-07-11T12:58:57.834Z,101044.22
2023-07-11T13:01:25.893Z,101038.13
2023-07-11T13:03:53.400Z,101030.00
2023-07-11T13:06:31.040Z,101031.69
2023-07-11T13:08:59.125Z,101028.13
2023-07-11T13:11:29.518Z,101034.41
2023-07-11T13:13:57.620Z,101028.97
2023-07-11T13:16:34.120Z,101033.56
2023-07-11T13:19:02.742Z,101037.28
2023-07-11T13:21:30.266Z,101027.44
2023-07-11T13:24:00.432Z,101030.16
2023-07-11T13:26:30.464Z,101033.38
2023-07-11T13:29:09.980Z,101022.03
2023-07-11T13:31:38.918Z,101023.03
2023-07-11T13:34:27.580Z,101030.34
2023-07-11T13:36:56.641Z,101019.97
2023-07-11T13:39:29.640Z,101019.78
2023-07-11T13:41:59.585Z,101017.41
2023-07-11T13:44:26.870Z,101022.00
2023-07-11T13:46:54.363Z,101022.69
2023-07-11T13:49:36.520Z,101022.69
2023-07-11T13:52:04.972Z,101025.41
2023-07-11T13:54:39.158Z,101022.00
2023-07-11T13:57:07.384Z,101016.56
2023-07-11T13:59:38.129Z,101012.34
2023-07-11T14:02:14.921Z,101006.75
2023-07-11T14:04:42.692Z,101015.72
2023-07-11T14:07:10.480Z,101014.69
2023-07-11T14:09:38.347Z,101014.69
2023-07-11T14:12:06.871Z,101018.44
2023-07-11T14:14:40.153Z,101011.31
2023-07-11T14:17:16.123Z,101010.47
2023-07-11T14:19:43.510Z,101011.50
2023-07-11T14:22:21.585Z,101008.78
2023-07-11T14:24:50.493Z,101009.63
2023-07-11T14:27:18.959Z,101002.69
2023-07-11T14:29:46.658Z,100999.97
2023-07-11T14:32:20.910Z,101000.47
2023-07-11T14:34:48.309Z,100996.22
2023-07-11T14:37:17.221Z,100990.47
2023-07-11T14:39:45.406Z,100991.84
2023-07-11T14:42:25.113Z,100996.75
2023-07-11T14:44:52.556Z,100983.69
2023-07-11T14:47:20.091Z,100984.72
2023-07-11T14:49:47.537Z,100985.75
2023-07-11T14:52:27.033Z,100979.31
2023-07-11T14:59:56.083Z,100977.63
2023-07-11T15:02:30.367Z,100975.25
2023-07-11T15:09:59.046Z,100966.25
2023-07-11T15:17:28.489Z,100964.91
2023-07-11T15:19:56.063Z,100964.41
2023-07-11T15:22:26.774Z,100965.56
2023-07-11T15:24:55.219Z,100967.75
2023-07-11T15:27:24.329Z,100961.84
2023-07-11T15:29:51.595Z,100958.59
2023-07-11T15:32:25.360Z,100957.94
2023-07-11T15:34:53.910Z,100956.59
2023-07-11T15:37:21.231Z,100954.53
2023-07-11T15:39:48.487Z,100952.34
2023-07-11T15:42:27.259Z,100943.56
2023-07-11T15:44:57.544Z,100939.47
2023-07-11T15:47:25.023Z,100937.94
2023-07-11T15:49:52.423Z,100938.78
2023-07-11T15:52:21.331Z,100936.59
2023-07-11T15:54:48.931Z,100932.72
2023-07-11T15:57:23.099Z,100922.00
2023-07-11T15:59:51.223Z,100915.94
2023-07-11T16:02:20.764Z,100924.25
2023-07-11T16:04:48.142Z,100920.31
2023-07-11T16:07:18.833Z,100921.03
2023-07-11T16:09:47.612Z,100909.84
2023-07-11T16:12:17.565Z,100916.94
2023-07-11T16:14:45.957Z,100913.91
2023-07-11T16:17:19.226Z,100909.31
2023-07-11T16:19:49.392Z,100904.91
2023-07-11T16:22:19.578Z,100909.31
2023-07-11T16:24:47.505Z,100906.94
2023-07-11T16:27:18.777Z,100905.59
2023-07-11T16:29:48.172Z,100901.34
2023-07-11T16:32:16.062Z,100902.91
2023-07-11T16:34:45.114Z,100898.84
2023-07-11T16:37:19.762Z,100907.13
2023-07-11T16:39:50.543Z,100913.03
2023-07-11T16:42:23.397Z,100897.63
2023-07-11T16:44:50.745Z,100901.38
2023-07-11T16:47:18.773Z,100895.44
2023-07-11T16:49:50.145Z,100892.91
2023-07-11T16:52:17.668Z,100884.09
2023-07-11T16:54:48.363Z,100876.31
2023-07-11T16:57:20.620Z,100874.59
2023-07-11T16:59:47.956Z,100863.94
2023-07-11T17:02:36.257Z,100858.72
2023-07-11T17:05:03.986Z,100866.00
2023-07-11T17:07:31.923Z,100873.59
2023-07-11T17:09:59.306Z,100867.16
2023-07-11T17:12:27.615Z,100872.25
2023-07-11T17:14:55.013Z,100867.50
2023-07-11T17:17:26.453Z,100868.34
2023-07-11T17:19:56.559Z,100862.41
2023-07-11T17:29:19.140Z,100863.41
2023-07-11T17:31:47.081Z,100860.69
2023-07-11T17:34:19.050Z,100856.28
2023-07-11T17:36:48.973Z,100859.19
2023-07-11T17:39:22.507Z,100861.91
2023-07-11T17:42:15.866Z,100861.91
2023-07-11T17:44:45.680Z,100867.97
2023-07-11T17:49:54.310Z,100859.84
2023-07-11T17:52:30.452Z,100853.25
2023-07-11T17:54:58.545Z,100848.84
2023-07-11T17:57:33.532Z,100847.97
2023-07-11T18:00:00.891Z,100839.19
2023-07-11T18:02:38.284Z,100844.63
2023-07-11T18:05:22.440Z,100849.19
2023-07-11T18:07:50.853Z,100848.16
2023-07-11T18:10:30.211Z,100842.41
2023-07-11T18:13:09.520Z,100844.94
2023-07-11T18:15:41.108Z,100823.09
2023-07-11T18:18:32.843Z,100822.41
2023-07-11T18:21:01.118Z,100814.97
2023-07-11T18:23:28.765Z,100812.25
2023-07-11T18:25:59.226Z,100808.50
2023-07-11T18:28:26.794Z,100805.81
2023-07-11T18:30:54.232Z,100808.50
2023-07-11T18:33:22.484Z,100818.31
2023-07-11T18:35:50.465Z,100821.03
2023-07-11T18:38:21.928Z,100811.22
2023-07-11T18:40:50.577Z,100812.91
2023-07-11T18:43:17.945Z,100807.47
2023-07-11T18:45:48.087Z,100805.81
2023-07-11T18:48:16.180Z,100803.25
2023-07-11T18:50:44.736Z,100798.31
2023-07-11T18:53:12.144Z,100804.13
2023-07-11T18:55:45.395Z,100796.13
2023-07-11T18:58:13.503Z,100792.41
2023-07-11T19:00:48.983Z,100787.16
2023-07-11T19:03:18.634Z,100792.78
2023-07-11T19:05:47.490Z,100802.78
2023-07-11T19:08:16.000Z,100803.63
2023-07-11T19:10:43.425Z,100808.34
2023-07-11T19:13:10.766Z,100810.03
2023-07-11T19:15:40.645Z,100815.63
2023-07-11T19:18:17.061Z,100801.25
2023-07-11T19:20:44.482Z,100806.31
2023-07-11T19:23:26.623Z,100807.31
2023-07-11T19:25:55.793Z,100819.03
2023-07-11T19:28:32.555Z,100826.16
2023-07-11T19:31:04.473Z,100825.13
2023-07-11T19:33:32.025Z,100827.16
2023-07-11T19:36:00.587Z,100843.44
2023-07-11T19:38:29.684Z,100849.50
2023-07-11T19:40:57.366Z,100843.06
2023-07-11T19:43:24.977Z,100845.44
2023-07-11T19:45:56.821Z,100837.31
2023-07-11T19:48:28.112Z,100821.22
2023-07-11T19:50:58.228Z,100824.59
2023-07-11T19:53:25.921Z,100834.59
2023-07-11T19:55:54.902Z,100840.84
2023-07-11T19:58:24.532Z,100853.75
2023-07-11T20:00:55.840Z,100853.75
2023-07-11T20:03:23.642Z,100860.16
2023-07-11T20:05:51.228Z,100862.88
2023-07-11T20:08:21.342Z,100867.31
2023-07-11T20:10:51.394Z,100877.13
2023-07-11T20:13:20.815Z,100867.13
2023-07-11T20:15:54.965Z,100873.38
2023-07-11T20:18:27.716Z,100871.38
2023-07-11T20:20:58.948Z,100861.03
2023-07-11T20:23:27.712Z,100853.56
2023-07-11T20:25:58.077Z,100859.00
2023-07-11T20:28:25.499Z,100871.72
2023-07-11T20:30:56.378Z,100865.44
2023-07-11T20:33:24.013Z,100877.13
2023-07-11T20:35:54.162Z,100870.03
2023-07-11T20:38:23.565Z,100871.00
2023-07-11T20:40:51.673Z,100862.03
2023-07-11T20:43:19.709Z,100859.19
2023-07-11T20:45:49.672Z,100844.78
2023-07-11T20:48:23.160Z,100847.66
2023-07-11T20:50:52.161Z,100845.78
2023-07-11T20:53:22.801Z,100847.81
2023-07-11T20:55:53.520Z,100850.53
2023-07-11T20:58:20.802Z,100851.56
2023-07-11T21:00:49.801Z,100853.25
2023-07-11T21:03:19.471Z,100855.28
2023-07-11T21:05:49.151Z,100852.56
2023-07-11T21:08:32.643Z,100852.56
2023-07-11T21:11:03.732Z,100848.84
2023-07-11T21:13:31.080Z,100846.28
2023-07-11T21:15:58.557Z,100844.44
2023-07-11T21:18:27.005Z,100840.72
2023-07-11T21:20:55.986Z,100843.25
2023-07-11T21:23:23.823Z,100838.34
2023-07-11T21:25:51.253Z,100843.22
2023-07-11T21:28:30.166Z,100844.75
2023-07-11T21:31:04.057Z,100847.09
2023-07-11T21:33:32.709Z,100855.25
2023-07-11T21:36:02.174Z,100847.78
2023-07-11T21:38:31.779Z,100856.59
2023-07-11T21:41:00.730Z,100859.97
2023-07-11T21:43:28.093Z,100862.50
2023-07-11T21:45:58.136Z,100862.34
2023-07-11T21:48:27.701Z,100856.94
2023-07-11T21:50:59.598Z,100845.09
2023-07-11T21:53:29.922Z,100849.66
2023-07-11T21:56:00.405Z,100843.88
2023-07-11T21:58:27.853Z,100852.00
2023-07-11T22:00:55.330Z,100851.16
2023-07-11T22:03:25.818Z,100852.19
2023-07-11T22:05:56.452Z,100842.38
2023-07-11T22:08:33.043Z,100833.41
2023-07-11T22:11:01.955Z,100836.25
2023-07-11T22:13:32.022Z,100830.63
2023-07-11T22:15:59.537Z,100839.56
2023-07-11T22:18:30.082Z,100824.28
2023-07-11T22:20:58.349Z,100826.28
2023-07-11T22:23:25.702Z,100813.91
2023-07-11T22:25:53.065Z,100817.75
2023-07-11T22:28:23.113Z,100817.91
2023-07-11T22:30:52.589Z,100809.22
2023-07-11T22:33:20.181Z,100799.69
2023-07-11T22:35:47.561Z,100806.47
2023-07-11T22:38:16.784Z,100797.13
2023-07-11T22:40:46.064Z,100802.88
2023-07-11T22:43:20.180Z,100809.25
2023-07-11T22:45:52.584Z,100804.97
2023-07-11T22:48:23.044Z,100816.97
2023-07-11T22:50:55.839Z,100824.56
2023-07-11T22:53:32.553Z,100824.72
2023-07-11T22:56:06.880Z,100817.03
2023-07-11T22:58:36.252Z,100823.81
2023-07-11T23:01:07.295Z,100821.56
2023-07-11T23:03:35.622Z,100813.91
2023-07-11T23:06:20.627Z,100817.25
2023-07-11T23:08:49.501Z,100806.03
2023-07-11T23:11:17.791Z,100812.97
2023-07-11T23:13:46.206Z,100805.28
2023-07-11T23:16:29.807Z,100815.81
2023-07-11T23:19:06.294Z,100801.88
2023-07-11T23:21:34.111Z,100795.41
2023-07-11T23:24:02.103Z,100787.94
2023-07-11T23:26:30.134Z,100777.69
2023-07-11T23:28:57.705Z,100790.25
2023-07-11T23:31:25.907Z,100791.78
2023-07-11T23:33:53.621Z,100787.84
2023-07-11T23:36:24.022Z,100784.94
2023-07-11T23:38:53.602Z,100792.88
2023-07-11T23:41:21.086Z,100803.59
2023-07-11T23:43:49.000Z,100788.97
2023-07-11T23:46:27.103Z,100774.16
2023-07-11T23:48:55.274Z,100784.84
2023-07-11T23:51:24.734Z,100781.09
2023-07-11T23:53:52.805Z,100775.50
2023-07-11T23:56:25.691Z,100782.59
2023-07-11T23:58:53.830Z,100784.28
